Philadelphia, Pennsylvania
Traffic Map
Current Weather Conditions
Philadelphia, Pennsylvania
Few Clouds
Few Clouds
28°
Feels Like: 28°
Wind Chill: 28° Ceiling: Unl
Heat Index: 28° Visibility: 10mi
Dew Point: 15° Wind: 8mph
Humidity: 44% Direction: 300° (WNW)
Pressure: 29.87in Gusts: 0mph
Raw Report DataKPHL 020154Z 30007KT 10SM FEW110 28/15 A2987 RMK AO2 SLP114 T02830150 $
Traffic Incident Summary
Active as of:
Severity:
Category:
InformationThere was an issue retrieving the traffic information for this location. Please try a different location or try again shortly.
Advertisements
Track Severe Weather on mobile